createdAt,value
2022-10-17T00:00:49.394Z,10.38
2022-10-17T00:03:16.140Z,10.00
2022-10-17T00:05:47.955Z,12.57
2022-10-17T00:08:16.127Z,9.57
2022-10-17T00:10:42.671Z,12.13
2022-10-17T00:13:10.522Z,12.45
2022-10-17T00:15:36.979Z,11.55
2022-10-17T00:18:04.018Z,11.73
2022-10-17T00:20:30.576Z,12.23
2022-10-17T00:22:57.326Z,10.27
2022-10-17T00:25:23.743Z,12.95
2022-10-17T00:27:50.133Z,8.98
2022-10-17T00:30:17.019Z,11.00
2022-10-17T00:32:43.640Z,11.38
2022-10-17T00:35:10.454Z,10.45
2022-10-17T00:37:38.533Z,9.55
2022-10-17T00:40:06.287Z,14.80
2022-10-17T00:42:33.512Z,12.15
2022-10-17T00:45:22.808Z,9.20
2022-10-17T00:47:58.046Z,13.35
2022-10-17T00:50:24.886Z,12.98
2022-10-17T00:52:51.885Z,10.25
2022-10-17T00:55:24.850Z,10.82
2022-10-17T00:57:51.798Z,11.80
2022-10-17T01:00:18.742Z,12.15
2022-10-17T01:02:45.326Z,11.45
2022-10-17T01:05:12.189Z,11.93
2022-10-17T01:07:39.733Z,13.18
2022-10-17T01:10:06.909Z,12.65
2022-10-17T01:12:33.256Z,14.20
2022-10-17T01:15:24.565Z,11.23
2022-10-17T01:18:05.631Z,10.95
2022-10-17T01:21:07.804Z,11.65
2022-10-17T01:24:11.002Z,10.40
2022-10-17T01:27:05.616Z,15.05
2022-10-17T01:29:52.323Z,11.00
2022-10-17T01:32:20.153Z,11.93
2022-10-17T01:35:00.720Z,11.82
2022-10-17T01:37:45.477Z,14.07
2022-10-17T01:40:23.511Z,10.43
2022-10-17T01:43:02.731Z,12.30
2022-10-17T01:45:54.267Z,11.55
2022-10-17T01:48:23.363Z,10.80
2022-10-17T01:50:54.739Z,10.43
2022-10-17T01:53:28.799Z,9.73
2022-10-17T01:58:36.794Z,8.60
2022-10-17T02:01:05.556Z,10.05
2022-10-17T02:03:34.402Z,11.50
2022-10-17T02:06:01.103Z,11.15
2022-10-17T02:08:48.072Z,10.43
2022-10-17T02:11:23.617Z,10.85
2022-10-17T02:18:07.307Z,10.15
2022-10-17T02:20:52.481Z,9.90
2022-10-17T02:26:12.293Z,8.52
2022-10-17T02:28:52.659Z,9.23
2022-10-17T02:31:31.789Z,9.73
2022-10-17T02:34:02.274Z,10.05
2022-10-17T02:36:41.053Z,9.00
2022-10-17T02:39:11.385Z,8.75
2022-10-17T02:41:38.978Z,12.98
2022-10-17T02:44:06.693Z,13.55
2022-10-17T02:46:34.061Z,8.82
2022-10-17T02:49:09.014Z,9.13
2022-10-17T02:51:57.146Z,13.38
2022-10-17T02:54:39.011Z,9.90
2022-10-17T02:57:14.359Z,11.45
2022-10-17T02:59:42.091Z,11.32
2022-10-17T03:02:08.673Z,11.57
2022-10-17T03:04:39.644Z,15.00
2022-10-17T03:07:06.045Z,12.43
2022-10-17T03:09:32.454Z,8.65
2022-10-17T03:11:58.903Z,10.80
2022-10-17T03:14:25.287Z,9.00
2022-10-17T03:16:51.759Z,8.77
2022-10-17T03:19:18.207Z,12.88
2022-10-17T03:21:44.787Z,12.20
2022-10-17T03:24:11.186Z,10.80
2022-10-17T03:26:37.667Z,8.75
2022-10-17T03:29:04.165Z,10.40
2022-10-17T03:31:30.995Z,9.82
2022-10-17T03:33:57.453Z,9.10
2022-10-17T03:36:23.938Z,10.32
2022-10-17T03:38:54.041Z,8.90
2022-10-17T03:41:20.750Z,14.35
2022-10-17T03:43:47.232Z,12.18
2022-10-17T03:46:13.839Z,11.52
2022-10-17T03:48:43.448Z,12.45
2022-10-17T03:51:10.451Z,7.35
2022-10-17T03:53:36.891Z,8.57
2022-10-17T03:56:14.613Z,9.15
2022-10-17T03:58:41.690Z,9.85
2022-10-17T04:01:10.015Z,12.75
2022-10-17T04:03:36.598Z,10.15
2022-10-17T04:06:04.814Z,8.90
2022-10-17T04:08:31.762Z,8.25
2022-10-17T04:11:02.236Z,7.70
2022-10-17T04:13:29.457Z,9.82
2022-10-17T04:15:57.629Z,12.77
2022-10-17T04:18:24.059Z,13.55
2022-10-17T04:20:53.975Z,11.55
2022-10-17T04:23:20.522Z,10.32
2022-10-17T04:25:46.903Z,10.10
2022-10-17T04:28:13.290Z,10.18
2022-10-17T04:30:42.355Z,9.27
2022-10-17T04:33:11.569Z,9.13
2022-10-17T04:35:38.126Z,11.02
2022-10-17T04:38:05.421Z,11.55
2022-10-17T04:40:38.652Z,11.27
2022-10-17T04:43:05.188Z,11.07
2022-10-17T04:45:31.603Z,14.40
2022-10-17T04:47:57.990Z,9.82
2022-10-17T04:50:27.217Z,9.50
2022-10-17T04:52:53.597Z,8.00
2022-10-17T04:55:20.143Z,10.38
2022-10-17T04:57:46.539Z,8.88
2022-10-17T05:00:13.818Z,11.60
2022-10-17T05:02:43.669Z,8.77
2022-10-17T05:05:12.736Z,9.27
2022-10-17T05:07:42.101Z,10.70
2022-10-17T05:10:08.841Z,9.95
2022-10-17T05:12:35.284Z,12.35
2022-10-17T05:15:01.702Z,9.02
2022-10-17T05:17:28.110Z,8.38
2022-10-17T05:19:55.592Z,7.78
2022-10-17T05:22:22.308Z,10.95
2022-10-17T05:24:48.734Z,11.18
2022-10-17T05:27:15.133Z,10.55
2022-10-17T05:29:44.665Z,11.50
2022-10-17T05:32:11.439Z,10.45
2022-10-17T05:34:37.833Z,8.57
2022-10-17T05:37:04.238Z,7.70
2022-10-17T05:39:30.712Z,10.38
2022-10-17T05:41:57.111Z,9.50
2022-10-17T05:44:23.613Z,8.35
2022-10-17T05:46:51.117Z,8.98
2022-10-17T05:49:31.979Z,9.07
2022-10-17T05:52:00.450Z,14.38
2022-10-17T05:54:27.188Z,8.70
2022-10-17T05:56:54.608Z,12.70
2022-10-17T05:59:21.734Z,14.05
2022-10-17T06:01:48.332Z,10.48
2022-10-17T06:04:14.800Z,7.63
2022-10-17T06:06:41.300Z,12.07
2022-10-17T06:09:08.229Z,9.82
2022-10-17T06:11:35.561Z,9.60
2022-10-17T06:14:02.651Z,12.80
2022-10-17T06:16:32.171Z,10.70
2022-10-17T06:18:58.588Z,11.27
2022-10-17T06:21:26.789Z,11.48
2022-10-17T06:23:53.344Z,10.85
2022-10-17T06:26:20.057Z,9.75
2022-10-17T06:28:46.633Z,14.15
2022-10-17T06:31:15.228Z,8.70
2022-10-17T06:33:41.906Z,6.43
2022-10-17T06:36:11.481Z,9.07
2022-10-17T06:38:37.970Z,10.30
2022-10-17T06:41:13.586Z,8.38
2022-10-17T06:43:43.171Z,8.65
2022-10-17T06:46:13.162Z,10.65
2022-10-17T06:48:39.584Z,8.23
2022-10-17T06:51:06.765Z,10.63
2022-10-17T06:53:34.484Z,9.88
2022-10-17T06:56:05.010Z,9.35
2022-10-17T06:58:34.269Z,10.02
2022-10-17T07:03:41.326Z,8.98
2022-10-17T07:06:08.064Z,9.48
2022-10-17T07:08:34.506Z,8.85
2022-10-17T07:11:09.234Z,11.25
2022-10-17T07:13:39.177Z,9.98
2022-10-17T07:16:06.734Z,10.88
2022-10-17T07:18:34.233Z,11.23
2022-10-17T07:21:03.969Z,9.68
2022-10-17T07:23:30.876Z,11.20
2022-10-17T07:26:01.576Z,11.27
2022-10-17T07:28:29.346Z,9.02
2022-10-17T07:30:55.800Z,15.88
2022-10-17T07:33:22.199Z,13.45
2022-10-17T07:35:52.746Z,14.25
2022-10-17T07:38:19.135Z,10.05
2022-10-17T07:40:45.806Z,11.55
2022-10-17T07:43:13.484Z,11.38
2022-10-17T07:45:41.628Z,12.93
2022-10-17T07:48:08.023Z,16.42
2022-10-17T07:50:34.919Z,11.32
2022-10-17T07:53:02.554Z,12.23
2022-10-17T07:55:28.963Z,12.80
2022-10-17T07:57:55.373Z,12.07
2022-10-17T08:00:21.833Z,11.23
2022-10-17T08:02:49.494Z,11.40
2022-10-17T08:05:15.977Z,16.60
2022-10-17T08:07:42.399Z,12.30
2022-10-17T08:12:40.484Z,10.55
2022-10-17T08:15:08.450Z,13.50
2022-10-17T08:17:35.726Z,15.63
2022-10-17T08:20:02.714Z,14.93
2022-10-17T08:22:29.411Z,18.08
2022-10-17T08:24:59.808Z,19.77
2022-10-17T08:27:27.940Z,17.20
2022-10-17T08:29:57.655Z,15.43
2022-10-17T08:32:26.300Z,13.93
2022-10-17T08:34:53.797Z,16.35
2022-10-17T08:37:20.497Z,11.82
2022-10-17T08:39:46.904Z,20.05
2022-10-17T08:42:31.132Z,18.25
2022-10-17T08:45:07.062Z,13.85
2022-10-17T08:47:39.718Z,19.60
2022-10-17T08:50:11.811Z,20.40
2022-10-17T08:53:06.134Z,15.73
2022-10-17T08:55:44.408Z,18.77
2022-10-17T08:58:27.409Z,20.45
2022-10-17T09:01:17.119Z,18.95
2022-10-17T09:04:13.911Z,20.17
2022-10-17T09:06:49.478Z,22.65
2022-10-17T09:09:30.808Z,17.27
2022-10-17T09:12:43.641Z,20.60
2022-10-17T09:15:31.742Z,19.25
2022-10-17T09:17:59.561Z,19.80
2022-10-17T09:20:30.180Z,20.77
2022-10-17T09:23:16.917Z,21.33
2022-10-17T09:25:53.360Z,21.42
2022-10-17T09:28:31.873Z,19.63
2022-10-17T09:31:05.873Z,20.42
2022-10-17T09:33:53.718Z,18.85
2022-10-17T09:36:33.927Z,20.65
2022-10-17T09:39:03.075Z,22.05
2022-10-17T09:41:50.752Z,21.13
2022-10-17T09:44:22.436Z,21.90
2022-10-17T09:47:15.039Z,18.45
2022-10-17T09:49:43.480Z,17.83
2022-10-17T09:52:19.189Z,20.30
2022-10-17T09:54:53.328Z,16.88
2022-10-17T09:57:21.431Z,19.20
2022-10-17T09:59:55.689Z,19.83
2022-10-17T10:02:24.045Z,16.70
2022-10-17T10:05:07.375Z,19.90
2022-10-17T10:07:38.934Z,20.13
2022-10-17T10:10:25.434Z,15.63
2022-10-17T10:13:08.004Z,15.30
2022-10-17T10:15:39.047Z,18.50
2022-10-17T10:18:25.540Z,14.38
2022-10-17T10:21:12.078Z,19.85
2022-10-17T10:23:40.871Z,19.50
2022-10-17T10:26:27.737Z,16.70
2022-10-17T10:28:59.345Z,18.63
2022-10-17T10:31:31.793Z,18.85
2022-10-17T10:33:59.915Z,18.67
2022-10-17T10:36:27.469Z,19.02
2022-10-17T10:38:57.680Z,16.48
2022-10-17T10:41:27.734Z,18.52
2022-10-17T10:43:54.985Z,16.30
2022-10-17T10:46:28.476Z,17.95
2022-10-17T10:49:00.208Z,17.95
2022-10-17T10:51:34.364Z,18.70
2022-10-17T10:54:10.271Z,15.93
2022-10-17T10:57:02.881Z,13.85
2022-10-17T10:59:38.640Z,16.45
2022-10-17T11:02:07.823Z,16.23
2022-10-17T11:04:46.497Z,15.82
2022-10-17T11:07:22.520Z,15.23
2022-10-17T11:10:10.164Z,16.58
2022-10-17T11:12:41.041Z,17.17
2022-10-17T11:15:25.899Z,18.13
2022-10-17T11:17:57.622Z,14.55
2022-10-17T11:20:48.030Z,13.60
2022-10-17T11:23:21.498Z,15.93
2022-10-17T11:25:50.865Z,17.17
2022-10-17T11:28:19.649Z,14.55
2022-10-17T11:30:50.831Z,16.30
2022-10-17T11:33:43.922Z,17.35
2022-10-17T11:36:10.879Z,15.88
2022-10-17T11:38:43.701Z,18.45
2022-10-17T11:41:13.726Z,15.35
2022-10-17T11:43:48.741Z,16.95
2022-10-17T11:46:23.818Z,17.17
2022-10-17T11:49:01.566Z,15.98
2022-10-17T11:54:31.356Z,12.15
2022-10-17T11:57:15.132Z,16.48
2022-10-17T11:59:54.504Z,15.88
2022-10-17T12:02:44.342Z,11.95
2022-10-17T12:05:46.509Z,15.20
2022-10-17T12:08:21.136Z,18.33
2022-10-17T12:10:59.385Z,13.80
2022-10-17T12:13:32.122Z,15.18
2022-10-17T12:16:19.163Z,15.05
2022-10-17T12:19:10.561Z,11.07
2022-10-17T12:22:06.438Z,17.20
2022-10-17T12:24:41.558Z,16.75
2022-10-17T12:27:37.033Z,14.77
2022-10-17T12:30:07.788Z,13.02
2022-10-17T12:32:53.322Z,16.13
2022-10-17T12:35:22.984Z,11.50
2022-10-17T12:37:54.386Z,15.98
2022-10-17T12:40:36.049Z,15.70
2022-10-17T12:43:23.435Z,16.67
2022-10-17T12:45:58.289Z,17.17
2022-10-17T12:48:33.925Z,17.02
2022-10-17T12:54:02.366Z,16.67
2022-10-17T12:56:37.032Z,16.30
2022-10-17T12:59:11.691Z,18.67
2022-10-17T13:01:40.376Z,16.42
2022-10-17T13:04:09.958Z,15.45
2022-10-17T13:06:45.956Z,16.58
2022-10-17T13:09:33.745Z,14.75
2022-10-17T13:12:03.335Z,16.67
2022-10-17T13:14:29.905Z,14.25
2022-10-17T13:17:04.856Z,15.18
2022-10-17T13:19:41.179Z,16.08
2022-10-17T13:22:15.528Z,13.23
2022-10-17T13:24:42.149Z,12.27
2022-10-17T13:27:29.679Z,12.65
2022-10-17T13:29:58.342Z,14.63
2022-10-17T13:32:26.874Z,11.50
2022-10-17T13:35:14.917Z,15.25
2022-10-17T13:37:43.902Z,12.27
2022-10-17T13:40:50.799Z,15.52
2022-10-17T13:43:20.399Z,13.05
2022-10-17T13:45:50.216Z,12.13
2022-10-17T13:48:28.672Z,12.02
2022-10-17T13:51:01.804Z,11.90
2022-10-17T13:53:39.853Z,14.88
2022-10-17T13:56:36.885Z,14.52
2022-10-17T13:59:20.805Z,10.75
2022-10-17T14:01:49.736Z,11.52
2022-10-17T14:04:20.719Z,10.23
2022-10-17T14:06:51.171Z,9.80
2022-10-17T14:09:26.690Z,12.93
2022-10-17T14:12:19.736Z,13.45
2022-10-17T14:15:09.844Z,9.52
2022-10-17T14:23:17.416Z,8.63
2022-10-17T14:25:40.408Z,13.95
2022-10-17T14:28:14.039Z,12.82
2022-10-17T14:30:56.894Z,9.00
2022-10-17T14:33:27.393Z,10.38
2022-10-17T14:35:58.710Z,11.93
2022-10-17T14:38:25.686Z,10.80
2022-10-17T14:44:04.665Z,7.93
2022-10-17T14:46:31.163Z,11.98
2022-10-17T14:49:14.541Z,11.82
2022-10-17T14:51:50.624Z,9.50
2022-10-17T14:54:30.260Z,10.50
2022-10-17T14:57:02.129Z,10.35
2022-10-17T14:59:52.852Z,8.15
2022-10-17T15:02:18.765Z,9.75
2022-10-17T15:04:45.294Z,8.13
2022-10-17T15:07:16.492Z,9.15
2022-10-17T15:09:47.818Z,9.35
2022-10-17T15:12:28.144Z,6.53
2022-10-17T15:14:54.868Z,7.32
2022-10-17T15:17:25.907Z,8.52
2022-10-17T15:19:52.342Z,9.65
2022-10-17T15:22:18.742Z,7.72
2022-10-17T15:24:46.257Z,8.13
2022-10-17T15:27:19.868Z,8.35
2022-10-17T15:29:46.910Z,7.60
2022-10-17T15:32:13.444Z,11.52
2022-10-17T15:34:39.937Z,8.57
2022-10-17T15:37:07.567Z,9.65
2022-10-17T15:39:34.050Z,8.75
2022-10-17T15:42:00.491Z,8.77
2022-10-17T15:44:27.065Z,7.30
2022-10-17T15:46:56.755Z,9.75
2022-10-17T15:49:23.155Z,7.90
2022-10-17T15:51:55.073Z,9.18
2022-10-17T15:56:53.674Z,7.47
2022-10-17T15:59:23.036Z,6.60
2022-10-17T16:01:49.684Z,7.93
2022-10-17T16:04:17.115Z,8.38
2022-10-17T16:06:44.190Z,7.60
2022-10-17T16:09:11.031Z,9.68
2022-10-17T16:11:41.936Z,9.57
2022-10-17T16:14:12.330Z,9.80
2022-10-17T16:16:39.101Z,8.98
2022-10-17T16:19:05.744Z,8.50
2022-10-17T16:21:35.083Z,8.98
2022-10-17T16:24:02.044Z,7.72
2022-10-17T16:26:28.949Z,9.27
2022-10-17T16:28:58.014Z,7.88
2022-10-17T16:31:30.241Z,8.35
2022-10-17T16:33:58.635Z,7.63
2022-10-17T16:36:25.425Z,8.40
2022-10-17T16:38:55.379Z,8.80
2022-10-17T16:41:24.471Z,8.95
2022-10-17T16:43:52.465Z,8.10
2022-10-17T16:46:19.450Z,9.57
2022-10-17T16:48:46.127Z,7.93
2022-10-17T16:51:18.073Z,8.52
2022-10-17T16:53:50.421Z,9.10
2022-10-17T16:58:45.032Z,8.70
2022-10-17T17:01:14.701Z,9.88
2022-10-17T17:03:45.172Z,9.65
2022-10-17T17:06:14.683Z,8.85
2022-10-17T17:08:42.167Z,8.48
2022-10-17T17:11:10.669Z,8.13
2022-10-17T17:13:38.205Z,10.15
2022-10-17T17:16:12.086Z,8.10
2022-10-17T17:18:39.135Z,7.35
2022-10-17T17:21:07.837Z,8.93
2022-10-17T17:23:36.546Z,8.55
2022-10-17T17:26:11.729Z,8.82
2022-10-17T17:31:59.526Z,8.60
2022-10-17T17:34:26.060Z,10.70
2022-10-17T17:36:52.519Z,8.88
2022-10-17T17:39:19.039Z,8.70
2022-10-17T17:41:45.713Z,9.63
2022-10-17T17:44:16.441Z,9.15
2022-10-17T17:46:43.688Z,11.18
2022-10-17T17:49:11.670Z,10.02
2022-10-17T17:51:38.854Z,10.27
2022-10-17T17:54:05.390Z,7.95
2022-10-17T17:56:32.435Z,9.27
2022-10-17T17:59:02.646Z,12.57
2022-10-17T18:01:36.698Z,10.98
2022-10-17T18:04:16.597Z,11.50
2022-10-17T18:06:43.263Z,7.93
2022-10-17T18:09:09.940Z,8.90
2022-10-17T18:11:37.446Z,10.50
2022-10-17T18:14:06.663Z,7.72
2022-10-17T18:16:34.764Z,11.98
2022-10-17T18:19:06.715Z,9.93
2022-10-17T18:21:33.727Z,12.57
2022-10-17T18:24:00.242Z,10.60
2022-10-17T18:26:27.289Z,10.18
2022-10-17T18:28:53.807Z,11.80
2022-10-17T18:31:25.133Z,9.00
2022-10-17T18:33:52.927Z,8.45
2022-10-17T18:36:20.021Z,12.25
2022-10-17T18:38:46.426Z,11.93
2022-10-17T18:41:15.713Z,11.23
2022-10-17T18:43:43.790Z,9.55
2022-10-17T18:46:14.821Z,13.13
2022-10-17T18:48:47.091Z,14.57
2022-10-17T18:51:15.104Z,10.25
2022-10-17T18:53:45.924Z,13.07
2022-10-17T18:56:12.726Z,10.68
2022-10-17T18:58:40.157Z,13.57
2022-10-17T19:01:18.172Z,8.60
2022-10-17T19:03:46.249Z,10.35
2022-10-17T19:06:17.018Z,10.20
2022-10-17T19:08:47.156Z,12.00
2022-10-17T19:11:21.053Z,9.98
2022-10-17T19:13:48.380Z,10.95
2022-10-17T19:16:20.934Z,9.57
2022-10-17T19:18:56.681Z,8.95
2022-10-17T19:21:23.846Z,10.38
2022-10-17T19:23:58.964Z,12.38
2022-10-17T19:26:26.922Z,10.20
2022-10-17T19:28:53.983Z,8.57
2022-10-17T19:31:26.213Z,11.07
2022-10-17T19:33:53.429Z,9.70
2022-10-17T19:36:23.285Z,9.50
2022-10-17T19:38:53.869Z,8.85
2022-10-17T19:41:20.486Z,7.43
2022-10-17T19:43:52.092Z,12.57
2022-10-17T19:46:24.281Z,10.82
2022-10-17T19:48:51.255Z,13.30
2022-10-17T19:51:30.111Z,12.60
2022-10-17T19:54:02.381Z,9.20
2022-10-17T19:56:31.332Z,8.82
2022-10-17T19:59:00.607Z,11.90
2022-10-17T20:01:30.417Z,11.27
2022-10-17T20:04:03.142Z,10.90
2022-10-17T20:06:41.644Z,12.73
2022-10-17T20:11:51.882Z,13.02
2022-10-17T20:14:20.669Z,13.27
2022-10-17T20:16:54.357Z,10.45
2022-10-17T20:19:24.085Z,10.52
2022-10-17T20:22:08.743Z,11.15
2022-10-17T20:27:04.902Z,15.48
2022-10-17T20:29:48.571Z,12.07
2022-10-17T20:32:17.573Z,14.48
2022-10-17T20:34:44.692Z,13.45
2022-10-17T20:37:11.458Z,14.82
2022-10-17T20:39:40.211Z,11.57
2022-10-17T20:42:07.076Z,8.77
2022-10-17T20:44:33.555Z,13.20
2022-10-17T20:47:02.544Z,14.85
2022-10-17T20:49:30.083Z,15.13
2022-10-17T20:51:57.239Z,11.00
2022-10-17T20:54:23.762Z,11.93
2022-10-17T20:56:59.883Z,15.80
2022-10-17T21:01:59.803Z,9.48
2022-10-17T21:04:46.823Z,10.60
2022-10-17T21:07:14.201Z,12.48
2022-10-17T21:09:40.616Z,14.85
2022-10-17T21:12:07.231Z,11.50
2022-10-17T21:14:33.866Z,12.18
2022-10-17T21:17:04.766Z,11.68
2022-10-17T21:19:31.829Z,15.00
2022-10-17T21:21:58.248Z,12.00
2022-10-17T21:24:27.559Z,9.50
2022-10-17T21:26:55.791Z,10.68
2022-10-17T21:29:23.047Z,10.10
2022-10-17T21:31:49.785Z,14.02
2022-10-17T21:34:20.750Z,10.70
2022-10-17T21:36:47.619Z,11.38
2022-10-17T21:39:14.934Z,10.20
2022-10-17T21:41:42.676Z,12.48
2022-10-17T21:44:15.262Z,8.82
2022-10-17T21:46:42.125Z,10.25
2022-10-17T21:49:09.841Z,12.55
2022-10-17T21:51:36.326Z,11.45
2022-10-17T21:54:05.797Z,11.98
2022-10-17T21:56:34.622Z,9.27
2022-10-17T21:59:01.318Z,11.80
2022-10-17T22:01:30.444Z,11.13
2022-10-17T22:03:59.042Z,9.45
2022-10-17T22:06:44.002Z,14.20
2022-10-17T22:09:18.099Z,12.50
2022-10-17T22:11:56.571Z,10.85
2022-10-17T22:14:27.731Z,15.88
2022-10-17T22:16:54.604Z,15.55
2022-10-17T22:19:31.079Z,14.20
2022-10-17T22:21:57.538Z,9.07
2022-10-17T22:24:24.061Z,10.82
2022-10-17T22:26:50.906Z,13.77
2022-10-17T22:29:17.347Z,14.32
2022-10-17T22:31:46.205Z,13.48
2022-10-17T22:34:14.416Z,11.98
2022-10-17T22:36:41.373Z,12.68
2022-10-17T22:39:07.849Z,7.28
2022-10-17T22:41:34.358Z,9.05
2022-10-17T22:44:01.328Z,9.13
2022-10-17T22:46:30.590Z,11.30
2022-10-17T22:48:57.002Z,12.60
2022-10-17T22:53:55.531Z,7.95
2022-10-17T22:56:22.850Z,11.75
2022-10-17T22:58:49.642Z,11.48
2022-10-17T23:01:18.685Z,8.80
2022-10-17T23:03:51.575Z,12.00
2022-10-17T23:06:18.920Z,12.00
2022-10-17T23:08:45.730Z,8.95
2022-10-17T23:11:12.516Z,10.68
2022-10-17T23:13:41.873Z,11.88
2022-10-17T23:16:08.943Z,8.60
2022-10-17T23:18:36.659Z,8.05
2022-10-17T23:21:03.168Z,13.70
2022-10-17T23:23:29.716Z,7.70
2022-10-17T23:26:05.014Z,9.65
2022-10-17T23:28:33.610Z,11.25
2022-10-17T23:31:08.805Z,12.02
2022-10-17T23:33:35.486Z,11.57
2022-10-17T23:36:05.494Z,8.50
2022-10-17T23:38:31.975Z,11.10
2022-10-17T23:40:58.459Z,8.65
2022-10-17T23:43:26.465Z,8.38
2022-10-17T23:45:53.050Z,12.93
2022-10-17T23:48:19.646Z,12.30
2022-10-17T23:50:46.065Z,12.00
2022-10-17T23:53:12.464Z,11.27
2022-10-17T23:55:42.683Z,13.07
2022-10-17T23:58:09.156Z,9.20
